Time;durP1;ratioP1;P1;durP2;ratioP2;P2;SDS_P1;SDS_P2;PMS_P1;PMS_P2;Temp;Humidity;BMP_temperature;BMP_pressure;BME280_temperature;BME280_humidity;BME280_pressure;Samples;Min_cycle;Max_cycle;Signal;HPM_P1;HPM_P2
2021/12/26 00:02:15;;;;;;;;;;;;;;;8.37;72.85;99914.34;4966631;28;20428;-86
2021/12/26 00:05:00;;;;;;;29.98;18.00;;;;;;;8.37;72.57;99917.06;4960441;28;20315;-87
2021/12/26 00:07:45;;;;;;;;;;;;;;;8.38;72.40;99919.44;4978338;28;20050;-85
2021/12/26 00:10:30;;;;;;;45.80;27.75;;;;;;;8.37;72.19;99914.34;4951052;28;19914;-89
2021/12/26 00:13:18;;;;;;;35.83;22.02;;;;;;;8.35;72.49;99925.50;4969248;28;20427;-86
2021/12/26 00:16:05;;;;;;;50.13;30.58;;;;;;;8.78;70.56;99916.53;4953076;28;20050;-87
2021/12/26 00:18:51;;;;;;;51.00;29.20;;;;;;;9.10;68.01;99907.78;4965193;28;20057;-87
2021/12/26 00:21:36;;;;;;;54.30;30.45;;;;;;;9.06;68.26;99916.91;4958618;28;20046;-85
2021/12/26 00:24:21;;;;;;;;;;;;;;;8.87;69.28;99915.38;4951446;28;20042;-88
2021/12/26 00:27:06;;;;;;;59.10;29.48;;;;;;;9.27;67.24;99915.88;4968685;28;19914;-87
2021/12/26 00:29:54;;;;;;;57.20;30.83;;;;;;;9.01;67.76;99924.09;4956397;28;20054;-86
2021/12/26 00:32:40;;;;;;;60.70;30.55;;;;;;;8.51;70.93;99932.03;4970334;28;20046;-86
2021/12/26 00:35:26;;;;;;;57.40;31.88;;;;;;;8.90;69.18;99928.28;4953714;28;20419;-87
2021/12/26 00:38:12;;;;;;;55.63;33.97;;;;;;;9.07;68.43;99915.78;4967009;28;20041;-86
2021/12/26 00:40:57;;;;;;;53.13;30.77;;;;;;;8.90;68.89;99914.72;4952165;28;20054;-87
2021/12/26 00:43:43;;;;;;;;;;;;;;;8.51;72.12;99915.78;4969646;28;20046;-86
2021/12/26 00:46:28;;;;;;;;;;;;;;;8.46;71.27;99913.22;4962169;28;19914;-86
2021/12/26 00:49:16;;;;;;;46.28;27.55;;;;;;;8.59;71.12;99906.03;4944234;28;20274;-86
2021/12/26 00:52:02;;;;;;;53.92;30.42;;;;;;;8.78;70.91;99908.41;4954980;28;20065;-86
2021/12/26 00:54:48;;;;;;;51.05;27.83;;;;;;;8.75;71.22;99903.59;4964079;28;20070;-86
2021/12/26 00:57:33;;;;;;;52.17;27.75;;;;;;;8.92;70.58;99906.28;4952226;28;20054;-87
2021/12/26 01:00:30;;;;;;;53.03;27.83;;;;;;;8.82;70.16;99909.34;4964792;28;20066;-86
2021/12/26 01:03:16;;;;;;;71.10;30.75;;;;;;;8.51;71.72;99896.81;4960966;28;20045;-85
2021/12/26 01:06:02;;;;;;;75.07;31.45;;;;;;;8.36;72.87;99908.13;4949786;28;20176;-87
2021/12/26 01:08:50;;;;;;;58.28;30.00;;;;;;;8.31;72.46;99908.28;4959505;28;20229;-89
2021/12/26 01:11:46;;;;;;;70.70;31.08;;;;;;;8.26;72.59;99900.31;4962848;28;20034;-87
2021/12/26 01:14:35;;;;;;;68.18;28.95;;;;;;;8.33;73.16;99886.31;4950006;28;20054;-87
2021/12/26 01:17:23;;;;;;;60.97;23.55;;;;;;;8.38;72.70;99897.75;4965246;28;21417;-87
2021/12/26 01:20:42;;;;;;;52.70;29.88;;;;;;;8.37;72.17;99898.09;4966459;28;20053;-88
2021/12/26 01:23:28;;;;;;;67.25;28.58;;;;;;;8.65;71.13;99895.81;4964002;28;20049;-87
2021/12/26 01:26:14;;;;;;;60.17;30.75;;;;;;;8.36;71.95;99893.78;4987363;28;20067;-88
2021/12/26 01:29:00;;;;;;;60.83;30.60;;;;;;;8.58;70.88;99894.38;4961857;28;20049;-86
2021/12/26 01:31:45;;;;;;;68.72;30.02;;;;;;;8.42;70.74;99900.66;4968865;28;20047;-87
2021/12/26 01:35:03;;;;;;;87.43;31.15;;;;;;;8.58;70.04;99890.91;4970322;28;20049;-85
2021/12/26 01:38:01;;;;;;;67.88;34.00;;;;;;;8.84;69.20;99890.81;4962446;28;20431;-85
2021/12/26 01:41:10;;;;;;;75.43;32.20;;;;;;;8.82;68.33;99893.88;4969547;28;20042;-85
2021/12/26 01:44:11;;;;;;;87.32;29.85;;;;;;;8.55;69.00;99891.53;4946637;29;20058;-86
2021/12/26 01:47:03;;;;;;;60.50;23.47;;;;;;;8.49;69.63;99896.31;4964065;28;20046;-85
2021/12/26 01:49:52;;;;;;;57.08;28.50;;;;;;;8.22;70.98;99902.06;4962767;28;20289;-85
2021/12/26 01:52:37;;;;;;;49.35;23.20;;;;;;;8.34;70.16;99898.72;4969742;28;20049;-85
2021/12/26 01:55:26;;;;;;;69.43;30.45;;;;;;;8.27;70.29;99882.94;4968444;28;20050;-85
2021/12/26 01:58:15;;;;;;;60.15;29.80;;;;;;;8.40;69.34;99882.00;4976919;28;20049;-85
2021/12/26 02:01:08;;;;;;;55.97;29.38;;;;;;;8.14;70.68;99889.31;4958675;29;20053;-85
2021/12/26 02:03:54;;;;;;;62.45;30.20;;;;;;;8.36;69.57;99891.09;4985930;28;20058;-86
2021/12/26 02:06:39;;;;;;;74.95;30.52;;;;;;;8.37;69.58;99892.69;4996507;28;20049;-86
2021/12/26 02:09:24;;;;;;;47.45;23.23;;;;;;;8.26;70.10;99894.88;4980946;28;20069;-83
2021/12/26 02:12:12;;;;;;;80.50;29.45;;;;;;;8.13;70.44;99893.13;4969996;28;20049;-84
2021/12/26 02:14:57;;;;;;;63.75;26.95;;;;;;;8.44;71.61;99890.25;4978826;28;20062;-84
2021/12/26 02:17:48;;;;;;;75.28;27.17;;;;;;;8.31;71.71;99888.53;4970074;28;20049;-84
2021/12/26 02:20:50;;;;;;;;;;;;;;;8.71;73.85;99887.19;4947309;29;20059;-84
2021/12/26 02:29:26;;;;;;;102.07;28.73;;;;;;;8.03;71.00;99888.03;4985153;28;20045;-86
2021/12/26 02:32:11;;;;;;;67.25;30.98;;;;;;;8.01;71.10;99893.78;4991159;28;20054;-84
2021/12/26 02:34:57;;;;;;;52.78;20.67;;;;;;;7.97;71.43;99892.03;4981543;28;20057;-84
2021/12/26 02:37:42;;;;;;;87.47;25.95;;;;;;;8.29;69.40;99888.81;4970931;28;20046;-84
2021/12/26 02:40:28;;;;;;;112.70;27.67;;;;;;;8.03;70.95;99893.44;4959494;29;20058;-84
2021/12/26 02:43:16;;;;;;;57.65;20.20;;;;;;;8.34;69.53;99891.41;4982816;28;20049;-84
2021/12/26 02:46:06;;;;;;;85.05;28.20;;;;;;;8.75;67.59;99887.34;4967778;28;20262;-84
2021/12/26 02:48:52;;;;;;;124.13;28.50;;;;;;;8.74;66.89;99883.81;4965044;28;20420;-84
2021/12/26 02:51:37;;;;;;;92.88;25.55;;;;;;;8.45;67.87;99878.31;4967544;28;20038;-84
2021/12/26 02:54:25;;;;;;;52.97;23.55;;;;;;;7.89;70.11;99880.06;4956565;28;20079;-84
2021/12/26 02:57:10;;;;;;;83.00;26.67;;;;;;;8.09;70.06;99886.75;4991501;28;20049;-84
2021/12/26 02:59:55;;;;;;;56.47;18.63;;;;;;;8.35;68.41;99878.66;4980950;28;20050;-85
2021/12/26 03:02:48;;;;;;;;;;;;;;;8.21;68.20;99878.00;4994095;28;20050;-85
2021/12/26 03:05:36;;;;;;;66.03;20.55;;;;;;;8.24;67.86;99883.56;4973347;28;20413;-84
2021/12/26 03:08:22;;;;;;;39.72;21.80;;;;;;;7.97;68.70;99892.03;4994866;28;20049;-85
2021/12/26 03:11:07;;;;;;;;;;;;;;;8.48;67.55;99888.53;4991334;28;20045;-85
2021/12/26 03:13:51;;;;;;;52.40;21.27;;;;;;;8.45;66.50;99889.94;4974833;28;19914;-86
2021/12/26 03:16:36;;;;;;;32.97;17.00;;;;;;;8.13;67.84;99883.09;4964764;28;20058;-85
2021/12/26 03:19:21;;;;;;;;;;;;;;;7.83;70.02;99894.84;4978114;28;20046;-86
2021/12/26 03:22:06;;;;;;;62.75;21.58;;;;;;;7.88;70.10;99897.41;4975579;28;19918;-86
2021/12/26 03:24:52;;;;;;;41.45;19.92;;;;;;;8.05;71.41;99893.94;4962806;28;20436;-85
2021/12/26 03:27:37;;;;;;;31.48;15.63;;;;;;;8.11;71.19;99904.28;4976452;28;20423;-86
2021/12/26 03:30:25;;;;;;;42.70;19.65;;;;;;;8.12;70.47;99910.50;4961965;28;20062;-86
2021/12/26 03:33:12;;;;;;;70.88;20.20;;;;;;;8.10;69.82;99904.59;4962982;28;20105;-86
2021/12/26 03:35:57;;;;;;;38.20;17.90;;;;;;;8.31;71.71;99904.78;4954152;28;20515;-86
2021/12/26 03:38:42;;;;;;;38.20;14.13;;;;;;;8.26;71.26;99896.78;4962096;28;20062;-87
2021/12/26 03:41:31;;;;;;;57.08;18.90;;;;;;;7.93;70.17;99893.75;4965036;28;20058;-86
2021/12/26 03:44:18;;;;;;;87.63;19.08;;;;;;;7.69;69.85;99899.63;4965621;28;20045;-86
2021/12/26 03:47:04;;;;;;;33.80;15.45;;;;;;;7.91;71.43;99902.22;4965426;28;20065;-86
2021/12/26 03:49:51;;;;;;;72.32;18.40;;;;;;;7.88;69.75;99902.03;4981397;28;20053;-86
2021/12/26 03:52:36;;;;;;;42.92;19.00;;;;;;;7.70;69.97;99896.59;4957834;28;20042;-87
2021/12/26 03:55:20;;;;;;;56.38;15.32;;;;;;;7.83;70.08;99902.97;4968716;28;20045;-88
2021/12/26 03:58:06;;;;;;;79.82;17.98;;;;;;;7.82;70.03;99906.81;4974163;28;20054;-87
2021/12/26 04:00:53;;;;;;;70.63;20.15;;;;;;;7.66;69.41;99901.06;4967419;28;20050;-87
2021/12/26 04:03:40;;;;;;;94.28;21.35;;;;;;;8.07;66.98;99892.50;4957915;28;20054;-87
2021/12/26 04:06:26;;;;;;;51.67;19.70;;;;;;;7.69;67.06;99884.19;4960012;28;20050;-88
2021/12/26 04:09:11;;;;;;;64.18;22.05;;;;;;;7.21;69.54;99875.34;4958845;28;20049;-88
2021/12/26 04:11:56;;;;;;;42.33;18.48;;;;;;;7.31;68.75;99889.34;4967420;28;20050;-87
2021/12/26 04:14:44;;;;;;;31.23;14.07;;;;;;;7.15;69.58;99885.50;4976709;28;20045;-88
2021/12/26 04:17:29;;;;;;;32.47;17.70;;;;;;;7.12;70.18;99890.69;4973248;28;20054;-86
2021/12/26 04:20:16;;;;;;;42.70;19.63;;;;;;;7.80;66.86;99900.91;4968168;28;20522;-86
2021/12/26 04:23:01;;;;;;;29.05;16.15;;;;;;;7.78;67.48;99894.22;4969077;28;20058;-86
2021/12/26 04:25:46;;;;;;;30.27;15.25;;;;;;;7.64;68.00;99897.88;4949129;28;20054;-86
2021/12/26 04:28:31;;;;;;;61.60;22.58;;;;;;;7.71;67.63;99895.50;4957209;28;20049;-86
2021/12/26 04:31:16;;;;;;;26.55;16.00;;;;;;;7.63;67.52;99898.19;4951478;28;20067;-86
2021/12/26 04:34:01;;;;;;;48.97;18.73;;;;;;;7.22;69.61;99901.22;4961842;28;20053;-86
2021/12/26 04:36:47;;;;;;;53.90;21.85;;;;;;;7.38;68.56;99894.28;4953716;28;20045;-87
2021/12/26 04:39:32;;;;;;;46.90;16.75;;;;;;;7.97;67.13;99905.56;4972616;28;20049;-87
2021/12/26 04:42:17;;;;;;;35.45;16.73;;;;;;;7.91;66.37;99907.63;4953225;28;20519;-87
2021/12/26 04:45:27;;;;;;;52.40;22.35;;;;;;;7.38;68.40;99905.13;4974843;28;20049;-87
2021/12/26 04:48:39;;;;;;;58.42;21.35;;;;;;;8.09;66.39;99908.41;4973155;28;20058;-87
2021/12/26 04:51:25;;;;;;;71.95;21.58;;;;;;;8.19;66.07;99899.97;4970166;28;20050;-86
2021/12/26 04:54:20;;;;;;;56.38;22.25;;;;;;;7.81;66.39;99899.81;4972341;28;20066;-86
2021/12/26 04:57:05;;;;;;;40.45;21.08;;;;;;;7.52;67.75;99896.88;4955841;28;20054;-84
2021/12/26 04:59:50;;;;;;;38.80;19.33;;;;;;;7.36;68.66;99893.84;4967976;28;20061;-84
2021/12/26 05:02:36;;;;;;;58.05;16.92;;;;;;;7.19;69.92;99896.47;4958350;28;20045;-84
2021/12/26 05:05:22;;;;;;;38.85;21.95;;;;;;;7.78;68.13;99907.75;4955869;28;20049;-84
2021/12/26 05:08:06;;;;;;;29.58;16.23;;;;;;;7.39;68.19;99898.59;4957565;28;20053;-83
2021/12/26 05:10:51;;;;;;;25.48;15.07;;;;;;;7.10;69.41;99904.56;4954294;28;20054;-87
2021/12/26 05:13:36;;;;;;;29.90;16.60;;;;;;;7.31;68.94;99899.38;4971671;28;20054;-87
2021/12/26 05:16:21;;;;;;;24.83;14.77;;;;;;;7.64;66.39;99908.69;4977822;28;20049;-87
2021/12/26 05:19:06;;;;;;;37.72;15.50;;;;;;;7.34;67.76;99904.16;4963747;28;20054;-87
2021/12/26 05:21:57;;;;;;;26.80;14.82;;;;;;;7.35;68.15;99911.16;4978692;28;20416;-86
2021/12/26 05:24:43;;;;;;;49.55;20.17;;;;;;;7.74;67.31;99923.81;4959813;28;20058;-87
2021/12/26 05:27:28;;;;;;;25.92;12.82;;;;;;;7.55;67.68;99920.59;4959574;28;20042;-87
2021/12/26 05:30:16;;;;;;;38.30;15.18;;;;;;;8.02;65.52;99927.88;4974947;28;20061;-87
2021/12/26 05:33:01;;;;;;;38.85;21.98;;;;;;;8.11;65.35;99938.69;4961095;28;20042;-85
2021/12/26 05:35:46;;;;;;;49.58;21.08;;;;;;;7.88;65.68;99943.44;4976068;28;20331;-84
2021/12/26 05:38:33;;;;;;;38.35;18.83;;;;;;;7.74;65.89;99951.69;4961521;28;20058;-83
2021/12/26 05:41:18;;;;;;;28.92;14.82;;;;;;;7.65;66.35;99948.16;4979152;28;20058;-83
2021/12/26 05:44:21;;;;;;;43.92;20.23;;;;;;;7.69;66.30;99930.19;4982640;28;20049;-83
2021/12/26 05:47:06;;;;;;;35.80;18.30;;;;;;;7.82;66.41;99930.38;4984207;28;20042;-84
2021/12/26 05:50:10;;;;;;;36.13;18.98;;;;;;;7.79;66.53;99936.41;4953885;28;20050;-84
2021/12/26 05:52:55;;;;;;;58.00;20.20;;;;;;;7.92;65.92;99933.59;4968725;28;20058;-85
2021/12/26 05:55:39;;;;;;;36.65;17.48;;;;;;;8.02;65.40;99929.78;4953195;28;20053;-84
2021/12/26 05:58:24;;;;;;;37.67;15.93;;;;;;;8.12;65.23;99932.16;4980718;28;20046;-83
2021/12/26 06:01:10;;;;;;;47.78;21.73;;;;;;;8.16;65.39;99942.03;4957868;28;20530;-83
2021/12/26 06:03:56;;;;;;;37.53;16.70;;;;;;;8.14;65.51;99933.44;4958608;28;20054;-83
2021/12/26 06:06:40;;;;;;;42.38;15.73;;;;;;;8.18;65.45;99940.94;4946981;29;20046;-81
2021/12/26 06:09:25;;;;;;;54.72;21.17;;;;;;;8.23;65.15;99935.38;4955847;28;20112;-83
2021/12/26 06:12:11;;;;;;;38.10;17.90;;;;;;;8.09;65.43;99938.19;4959941;28;20042;-82
2021/12/26 06:14:56;;;;;;;51.65;22.02;;;;;;;8.13;64.95;99933.75;4951591;28;20054;-82
2021/12/26 06:17:41;;;;;;;31.88;15.20;;;;;;;8.15;65.23;99945.88;4955953;28;20050;-82
2021/12/26 06:20:58;;;;;;;42.80;19.65;;;;;;;8.18;65.08;99939.00;4969820;28;20053;-83
2021/12/26 06:24:14;;;;;;;44.35;20.92;;;;;;;8.16;65.11;99936.63;4961311;28;20050;-82
2021/12/26 06:27:17;;;;;;;45.15;19.48;;;;;;;8.08;65.38;99937.41;4949506;29;20070;-82
2021/12/26 06:30:40;;;;;;;34.85;18.58;;;;;;;7.81;65.67;99934.19;4932618;29;20055;-81
2021/12/26 06:33:34;;;;;;;48.75;19.58;;;;;;;7.94;66.19;99944.06;4927558;29;20046;-82
2021/12/26 06:36:38;;;;;;;41.83;19.50;;;;;;;7.97;66.29;99938.06;4963414;28;20050;-82
2021/12/26 06:39:23;;;;;;;35.42;19.60;;;;;;;8.02;65.77;99935.19;4963653;28;20049;-82
2021/12/26 06:42:28;;;;;;;33.35;18.50;;;;;;;7.84;66.55;99934.34;4988058;28;20053;-83
2021/12/26 06:45:32;;;;;;;35.47;21.15;;;;;;;7.47;67.77;99934.88;4968518;28;20042;-82
2021/12/26 06:48:43;;;;;;;33.92;19.58;;;;;;;7.74;66.60;99924.63;4975405;28;20045;-82
2021/12/26 06:51:29;;;;;;;35.50;19.92;;;;;;;7.63;67.00;99930.63;4968713;28;20042;-82
2021/12/26 06:54:15;;;;;;;42.50;20.20;;;;;;;7.72;66.88;99936.88;4953423;28;20050;-82
2021/12/26 06:57:00;;;;;;;27.60;15.45;;;;;;;7.53;67.60;99939.84;4970867;28;20049;-82
2021/12/26 06:59:45;;;;;;;31.25;16.02;;;;;;;7.61;66.59;99939.09;4955876;28;20591;-82
2021/12/26 07:02:31;;;;;;;54.85;22.77;;;;;;;7.80;67.09;99944.22;4953110;28;20050;-82
2021/12/26 07:05:17;;;;;;;60.45;22.58;;;;;;;7.85;66.44;99941.38;4954249;28;20046;-82
2021/12/26 07:08:16;;;;;;;68.22;23.52;;;;;;;7.88;66.15;99940.72;4974417;28;20523;-80
2021/12/26 07:11:09;;;;;;;51.95;23.48;;;;;;;7.93;66.40;99945.97;4972401;28;20049;-82
2021/12/26 07:13:56;;;;;;;42.55;23.48;;;;;;;7.77;67.20;99957.59;4968744;28;20050;-82
2021/12/26 07:16:42;;;;;;;46.53;23.25;;;;;;;7.64;67.74;99956.59;4948732;29;20050;-82
2021/12/26 07:19:27;;;;;;;;;;;;;;;7.84;67.38;99966.84;4949786;28;20115;-82
2021/12/26 07:22:19;;;;;;;61.22;22.88;;;;;;;7.81;67.61;99972.09;4958709;28;19918;-82
2021/12/26 07:25:06;;;;;;;41.10;18.50;;;;;;;7.90;67.17;99970.19;4959430;28;20061;-82
2021/12/26 07:27:51;;;;;;;58.10;24.90;;;;;;;7.79;67.54;99964.28;4952275;28;20562;-82
2021/12/26 07:30:55;;;;;;;59.42;25.33;;;;;;;7.70;68.29;99961.56;4962964;28;20045;-82
2021/12/26 07:33:40;;;;;;;49.25;24.80;;;;;;;7.95;67.43;99961.91;4966064;28;20111;-82
2021/12/26 07:36:28;;;;;;;47.50;23.00;;;;;;;7.84;67.06;99956.00;4949445;28;20062;-82
2021/12/26 07:39:20;;;;;;;54.58;25.00;;;;;;;7.85;67.17;99952.19;4949585;28;20066;-82
2021/12/26 07:42:05;;;;;;;42.85;18.48;;;;;;;7.62;67.05;99956.91;4984397;28;20049;-82
2021/12/26 07:45:19;;;;;;;40.65;22.75;;;;;;;7.86;67.33;99969.22;4947505;28;20049;-81
2021/12/26 07:48:09;;;;;;;44.72;24.55;;;;;;;7.81;67.36;99975.59;4947105;28;20045;-81
2021/12/26 07:50:54;;;;;;;37.38;20.08;;;;;;;7.92;67.33;99978.81;4957119;28;20049;-81
2021/12/26 07:54:08;;;;;;;49.15;23.30;;;;;;;7.63;67.82;99987.47;4919018;28;20062;-81
2021/12/26 07:57:13;;;;;;;45.25;24.75;;;;;;;7.77;68.18;99998.19;4985104;28;20515;-81
2021/12/26 08:00:18;;;;;;;46.15;23.75;;;;;;;7.58;68.14;99995.72;4981098;28;20054;-80
2021/12/26 08:03:12;;;;;;;49.17;24.95;;;;;;;7.78;68.00;100003.25;4962299;28;20050;-81
2021/12/26 08:06:20;;;;;;;44.28;24.98;;;;;;;7.68;68.74;100000.84;4984033;28;20038;-81
2021/12/26 08:09:13;;;;;;;47.83;24.15;;;;;;;5.97;74.48;100012.84;4972691;28;20417;-80
2021/12/26 08:11:58;;;;;;;42.85;20.83;;;;;;;5.11;79.32;100006.41;4953160;28;20415;-79
2021/12/26 08:14:43;;;;;;;70.57;19.88;;;;;;;5.00;79.60;100010.34;4952699;28;20069;-80
2021/12/26 08:17:29;;;;;;;54.90;19.05;;;;;;;5.23;80.25;100021.28;4964971;28;20046;-78
2021/12/26 08:20:14;;;;;;;64.80;27.67;;;;;;;5.50;79.33;100021.31;4947051;28;20039;-79
2021/12/26 08:23:00;;;;;;;;;;;;;;;5.36;79.79;100026.69;4974536;28;20449;-78
2021/12/26 08:25:45;;;;;;;51.10;22.05;;;;;;;5.39;80.84;100039.56;4962295;28;19918;-79
2021/12/26 08:28:30;;;;;;;55.78;20.38;;;;;;;5.58;79.00;100036.81;4949622;28;20042;-79
2021/12/26 08:31:16;;;;;;;47.20;21.38;;;;;;;5.31;78.86;100036.78;4985646;28;20054;-78
2021/12/26 08:34:03;;;;;;;47.00;26.00;;;;;;;5.13;80.41;100051.88;4973870;28;20043;-78
2021/12/26 08:36:54;;;;;;;60.92;28.00;;;;;;;5.12;81.72;100043.03;4974228;28;20058;-78
2021/12/26 08:39:41;;;;;;;65.40;27.98;;;;;;;4.74;81.70;100049.56;4973282;28;20042;-77
2021/12/26 08:42:26;;;;;;;62.22;28.58;;;;;;;5.31;82.05;100058.34;4964450;28;20046;-77
2021/12/26 08:45:11;;;;;;;45.30;22.63;;;;;;;5.36;79.95;100056.34;4958825;28;20038;-78
2021/12/26 08:47:56;;;;;;;43.25;22.02;;;;;;;5.77;79.20;100052.91;4957106;28;20049;-77
2021/12/26 08:50:42;;;;;;;38.53;21.58;;;;;;;5.55;78.81;100056.28;4949036;28;20039;-77
2021/12/26 08:53:28;;;;;;;52.03;28.20;;;;;;;5.74;77.58;100070.47;4960981;28;20046;-77
2021/12/26 08:56:13;;;;;;;47.47;26.63;;;;;;;5.89;78.14;100064.81;4953061;28;20042;-78
2021/12/26 08:58:58;;;;;;;37.10;20.75;;;;;;;6.33;76.09;100068.78;4966581;28;20053;-78
2021/12/26 09:01:45;;;;;;;41.20;20.33;;;;;;;6.24;75.37;100071.41;4960027;28;20042;-78
2021/12/26 09:04:30;;;;;;;51.67;26.17;;;;;;;6.35;75.49;100080.06;4950079;29;20035;-77
2021/12/26 09:07:15;;;;;;;43.03;19.98;;;;;;;6.22;75.93;100075.50;4936010;29;20051;-78
2021/12/26 09:10:01;;;;;;;39.72;20.85;;;;;;;6.17;75.57;100075.59;4957892;28;20043;-78
2021/12/26 09:12:46;;;;;;;52.60;26.40;;;;;;;5.91;77.28;100078.81;4976381;28;20069;-78
2021/12/26 09:15:31;;;;;;;41.13;20.90;;;;;;;5.99;77.70;100080.03;4956560;28;20042;-78
2021/12/26 09:18:16;;;;;;;42.60;22.27;;;;;;;6.29;76.90;100087.50;4962517;28;20050;-77
2021/12/26 09:21:01;;;;;;;48.22;23.25;;;;;;;6.43;76.22;100095.56;4975328;28;20043;-78
2021/12/26 09:23:46;;;;;;;46.10;21.92;;;;;;;6.25;77.28;100096.47;4950418;29;20043;-77
2021/12/26 09:26:30;;;;;;;46.58;23.67;;;;;;;6.38;77.01;100098.38;4954702;29;20039;-77
2021/12/26 09:29:15;;;;;;;45.83;23.45;;;;;;;6.45;77.30;100091.47;4956802;28;20043;-77
2021/12/26 09:32:02;;;;;;;55.95;28.20;;;;;;;6.43;77.38;100095.56;4966584;28;20054;-78
2021/12/26 09:34:47;;;;;;;53.78;28.45;;;;;;;6.39;76.94;100095.41;4947833;28;20047;-78
2021/12/26 09:37:32;;;;;;;45.22;22.88;;;;;;;6.43;77.86;100090.97;4959907;28;20047;-78
2021/12/26 09:40:19;;;;;;;55.55;28.50;;;;;;;6.54;76.63;100083.47;4974356;28;20050;-78
2021/12/26 09:43:04;;;;;;;52.72;27.67;;;;;;;6.49;77.10;100088.16;4973452;28;20232;-78
2021/12/26 09:45:49;;;;;;;49.30;22.73;;;;;;;6.50;76.71;100081.69;4974641;28;20050;-80
2021/12/26 09:48:34;;;;;;;44.03;21.85;;;;;;;6.39;76.94;100079.19;4952360;28;20503;-78
2021/12/26 09:51:19;;;;;;;43.90;20.88;;;;;;;6.33;77.37;100076.91;4949890;28;20050;-78
2021/12/26 09:54:05;;;;;;;46.10;24.08;;;;;;;6.53;76.98;100076.44;4964555;28;20050;-78
2021/12/26 09:56:50;;;;;;;56.88;28.15;;;;;;;6.46;76.23;100073.34;4965494;28;20051;-79
2021/12/26 09:59:35;;;;;;;53.60;27.20;;;;;;;6.33;76.33;100075.00;4979018;28;20517;-79
2021/12/26 10:02:20;;;;;;;43.60;22.15;;;;;;;6.31;76.22;100074.50;4972688;28;20239;-79
2021/12/26 10:05:05;;;;;;;38.08;20.52;;;;;;;6.38;77.90;100065.97;4974357;28;20054;-79
2021/12/26 10:08:05;;;;;;;61.38;30.27;;;;;;;6.87;75.47;100074.03;4977712;28;20042;-78
2021/12/26 10:11:11;;;;;;;50.80;29.85;;;;;;;6.75;75.23;100073.81;4983556;28;20046;-78
2021/12/26 10:14:01;;;;;;;45.67;25.50;;;;;;;7.02;74.29;100066.66;4980300;28;20051;-79
2021/12/26 10:16:57;;;;;;;50.25;26.35;;;;;;;6.74;76.58;100068.69;4958493;28;20073;-79
2021/12/26 10:19:44;;;;;;;;;;;;;;;6.50;76.50;100068.97;4942148;28;20062;-79
2021/12/26 10:22:29;;;;;;;52.75;27.13;;;;;;;6.14;77.56;100060.84;4960425;28;19918;-79
2021/12/26 10:25:15;;;;;;;38.22;21.27;;;;;;;6.65;76.49;100055.13;4975648;28;20038;-78
2021/12/26 10:28:11;;;;;;;48.30;26.98;;;;;;;6.55;77.51;100055.34;4952757;28;20495;-79
2021/12/26 10:31:08;;;;;;;50.83;28.50;;;;;;;6.37;78.46;100053.56;4985441;28;20054;-79
2021/12/26 10:33:53;;;;;;;61.80;31.70;;;;;;;6.49;76.39;100048.47;4974746;28;20050;-79
2021/12/26 10:36:43;;;;;;;53.38;29.52;;;;;;;6.30;77.43;100043.19;4959217;28;20043;-79
2021/12/26 10:39:32;;;;;;;53.15;29.27;;;;;;;6.52;78.96;100049.75;4973868;28;20049;-80
2021/12/26 10:42:21;;;;;;;57.78;31.05;;;;;;;7.18;75.06;100040.88;4956307;28;20047;-79
2021/12/26 10:45:20;;;;;;;61.00;31.92;;;;;;;7.12;74.53;100039.38;4985698;28;20046;-80
2021/12/26 10:48:07;;;;;;;49.45;27.88;;;;;;;6.72;76.90;100047.38;4979593;28;20058;-80
2021/12/26 10:50:52;;;;;;;47.13;27.10;;;;;;;7.10;75.60;100045.13;4962849;28;20043;-84
2021/12/26 10:53:37;;;;;;;38.60;22.25;;;;;;;6.73;76.34;100040.06;4967863;28;20043;-80
2021/12/26 10:56:22;;;;;;;36.42;21.08;;;;;;;6.52;77.84;100041.63;4975718;28;20069;-79
2021/12/26 10:59:20;;;;;;;42.03;21.08;;;;;;;6.42;78.12;100035.38;4953765;28;20054;-80
2021/12/26 11:02:05;;;;;;;45.78;26.90;;;;;;;6.29;78.74;100035.41;4977379;28;20051;-79
2021/12/26 11:05:07;;;;;;;45.25;25.10;;;;;;;6.75;78.23;100037.88;4956795;28;20049;-79
2021/12/26 11:07:57;;;;;;;44.22;25.63;;;;;;;7.26;74.39;100024.69;4973589;28;20524;-78
2021/12/26 11:10:51;;;;;;;44.58;24.98;;;;;;;7.65;72.80;100029.34;4978121;28;20042;-78
2021/12/26 11:13:36;;;;;;;35.37;21.47;;;;;;;7.72;72.91;100013.44;4979179;28;20046;-78
2021/12/26 11:16:21;;;;;;;27.95;17.33;;;;;;;8.40;70.57;100012.03;4975739;28;20058;-78
2021/12/26 11:19:06;;;;;;;28.35;17.48;;;;;;;8.01;69.91;100003.97;4950474;28;20062;-78
2021/12/26 11:21:51;;;;;;;29.25;16.05;;;;;;;7.81;70.94;99996.44;4952512;28;20043;-78
2021/12/26 11:24:37;;;;;;;33.22;17.75;;;;;;;7.13;74.28;99997.72;4962188;28;20046;-78
2021/12/26 11:27:22;;;;;;;38.10;22.13;;;;;;;7.26;74.08;99994.16;4979796;28;20407;-79
2021/12/26 11:30:08;;;;;;;32.33;18.15;;;;;;;7.55;73.45;99988.25;4949783;28;20522;-77
2021/12/26 11:32:53;;;;;;;40.75;22.60;;;;;;;7.56;73.42;99993.34;4973889;28;20053;-78
2021/12/26 11:35:40;;;;;;;39.33;23.48;;;;;;;7.84;72.94;99977.66;4976349;28;20053;-79
2021/12/26 11:38:26;;;;;;;37.42;22.60;;;;;;;8.08;72.60;99979.91;4946858;28;20522;-78
2021/12/26 11:42:04;;;;;;;29.13;17.27;;;;;;;8.13;72.39;99985.19;4961087;28;20046;-78
2021/12/26 11:45:19;;;;;;;37.08;20.75;;;;;;;7.95;72.80;99983.56;4974163;28;20049;-78
2021/12/26 11:48:36;;;;;;;38.33;21.77;;;;;;;8.24;71.67;99981.06;4971348;28;20050;-78
2021/12/26 11:52:08;;;;;;;37.50;21.65;;;;;;;8.53;70.15;99978.53;4968784;28;20045;-78
2021/12/26 11:55:49;;;;;;;36.03;20.77;;;;;;;8.62;69.47;99980.47;4974558;28;20057;-78
2021/12/26 11:59:16;;;;;;;38.47;22.85;;;;;;;8.39;71.17;99987.94;4961508;28;20061;-78
2021/12/26 12:02:00;;;;;;;31.05;16.67;;;;;;;8.87;68.75;99987.78;4926176;29;20143;-78
2021/12/26 12:05:07;;;;;;;31.60;18.70;;;;;;;8.97;68.86;99987.44;4956529;28;20050;-78
2021/12/26 12:08:07;;;;;;;36.33;22.70;;;;;;;9.66;67.12;99984.47;4961784;28;20069;-78
2021/12/26 12:10:52;;;;;;;36.15;22.60;;;;;;;9.09;68.00;99981.38;4974122;28;20053;-78
2021/12/26 12:13:39;;;;;;;32.85;19.83;;;;;;;8.24;71.35;99982.97;4968884;28;20057;-78
2021/12/26 12:16:24;;;;;;;40.53;23.33;;;;;;;8.19;71.02;99978.50;4969971;28;20053;-78
2021/12/26 12:19:10;;;;;;;30.90;17.55;;;;;;;8.49;70.76;99965.97;4977503;28;20057;-77
2021/12/26 12:21:59;;;;;;;35.30;21.60;;;;;;;8.54;69.98;99958.47;4950355;28;20054;-77
2021/12/26 12:24:44;;;;;;;38.15;21.42;;;;;;;8.80;69.63;99961.16;4959005;29;20046;-79
2021/12/26 12:27:29;;;;;;;26.75;16.38;;;;;;;9.55;66.68;99958.84;4963017;28;20046;-78
2021/12/26 12:30:25;;;;;;;37.65;21.90;;;;;;;8.72;68.60;99974.72;4976100;28;20515;-78
2021/12/26 12:33:18;;;;;;;34.90;22.20;;;;;;;8.70;69.67;99971.53;4958540;28;20046;-79
2021/12/26 12:36:24;;;;;;;38.00;21.30;;;;;;;8.07;72.18;99975.66;4978267;28;20534;-79
2021/12/26 12:39:13;;;;;;;41.90;21.77;;;;;;;7.67;73.69;99978.41;4964086;28;20050;-78
2021/12/26 12:41:58;;;;;;;40.50;24.02;;;;;;;7.47;74.16;99978.97;4977835;28;20293;-78
2021/12/26 12:44:44;;;;;;;33.53;18.30;;;;;;;7.14;75.15;99981.22;4950368;28;20050;-79
2021/12/26 12:47:29;;;;;;;40.30;23.23;;;;;;;7.49;74.23;99974.06;4963318;28;20050;-77
2021/12/26 12:50:31;;;;;;;38.95;20.15;;;;;;;7.29;75.05;99975.41;4951881;28;20058;-78
2021/12/26 12:53:44;;;;;;;38.53;23.23;;;;;;;7.19;75.53;99981.06;4959223;28;20045;-79
2021/12/26 12:56:33;;;;;;;43.50;24.63;;;;;;;6.90;76.81;99971.84;4953278;28;20041;-79
2021/12/26 12:59:20;;;;;;;47.35;26.33;;;;;;;7.08;76.02;99970.84;4965034;28;20050;-79
2021/12/26 13:02:27;;;;;;;45.08;25.20;;;;;;;6.82;76.65;99985.00;4957169;28;20119;-79
2021/12/26 13:05:12;;;;;;;46.42;26.90;;;;;;;6.56;78.04;99985.91;4976339;28;20042;-78
2021/12/26 13:08:09;;;;;;;37.55;21.60;;;;;;;6.54;78.18;99988.13;4967019;28;20050;-78
2021/12/26 13:10:59;;;;;;;47.63;26.48;;;;;;;6.57;78.53;99982.91;4941837;28;20050;-78
2021/12/26 13:13:43;;;;;;;49.67;27.77;;;;;;;6.54;79.02;99978.13;4967892;28;20046;-79
2021/12/26 13:16:29;;;;;;;40.67;23.63;;;;;;;6.63;78.50;99983.59;4973167;28;20074;-79
2021/12/26 13:19:14;;;;;;;54.40;28.73;;;;;;;6.40;79.24;99986.25;4980473;28;20046;-78